createdAt,value
2019-05-03T00:01:54.825Z,26.83
2019-05-03T00:04:22.359Z,26.17
2019-05-03T00:06:49.039Z,26.17
2019-05-03T00:09:17.438Z,26.10
2019-05-03T00:11:43.893Z,24.60
2019-05-03T00:14:12.335Z,25.03
2019-05-03T00:16:41.639Z,26.27
2019-05-03T00:19:08.120Z,26.30
2019-05-03T00:21:34.564Z,27.30
2019-05-03T00:24:02.487Z,25.70
2019-05-03T00:26:29.023Z,25.13
2019-05-03T00:28:55.403Z,27.37
2019-05-03T00:31:22.582Z,26.10
2019-05-03T00:33:51.700Z,25.53
2019-05-03T00:36:22.154Z,26.83
2019-05-03T00:38:50.080Z,25.13
2019-05-03T00:41:16.448Z,24.80
2019-05-03T00:43:42.894Z,25.60
2019-05-03T00:46:09.364Z,25.87
2019-05-03T00:48:35.816Z,25.17
2019-05-03T00:51:02.535Z,25.13
2019-05-03T00:53:28.948Z,25.37
2019-05-03T00:55:55.411Z,26.17
2019-05-03T00:58:22.386Z,25.90
2019-05-03T01:00:49.142Z,26.43
2019-05-03T01:03:15.527Z,24.97
2019-05-03T01:05:42.330Z,26.33
2019-05-03T01:08:09.368Z,28.03
2019-05-03T01:10:35.875Z,26.53
2019-05-03T01:13:02.515Z,29.70
2019-05-03T01:15:31.960Z,28.20
2019-05-03T01:18:01.692Z,29.03
2019-05-03T01:20:28.264Z,28.47
2019-05-03T01:22:54.606Z,29.17
2019-05-03T01:25:31.572Z,27.43
2019-05-03T01:27:49.247Z,27.73
2019-05-03T01:30:15.819Z,29.13
2019-05-03T01:32:42.367Z,28.40
2019-05-03T01:35:08.848Z,27.47
2019-05-03T01:37:35.279Z,28.63
2019-05-03T01:40:02.529Z,30.47
2019-05-03T01:42:29.171Z,28.30
2019-05-03T01:44:55.631Z,28.30
2019-05-03T01:47:24.011Z,30.03
2019-05-03T01:49:52.255Z,28.23
2019-05-03T01:52:21.903Z,29.70
2019-05-03T01:54:48.597Z,28.83
2019-05-03T01:57:15.064Z,30.23
2019-05-03T01:59:42.564Z,30.03
2019-05-03T02:02:12.494Z,31.27
2019-05-03T02:04:41.768Z,32.07
2019-05-03T02:07:08.323Z,30.27
2019-05-03T02:09:34.676Z,32.00
2019-05-03T02:12:02.129Z,34.30
2019-05-03T02:14:28.627Z,32.30
2019-05-03T02:16:55.003Z,30.57
2019-05-03T02:19:22.018Z,30.20
2019-05-03T02:21:48.615Z,31.97
2019-05-03T02:24:15.067Z,30.67
2019-05-03T02:26:42.499Z,32.17
2019-05-03T02:29:09.224Z,30.37
2019-05-03T02:31:35.687Z,30.33
2019-05-03T02:34:03.553Z,34.03
2019-05-03T02:36:33.476Z,31.73
2019-05-03T02:38:58.560Z,32.90
2019-05-03T02:41:25.231Z,31.57
2019-05-03T02:43:56.101Z,33.30
2019-05-03T02:46:25.344Z,32.67
2019-05-03T02:48:56.738Z,32.40
2019-05-03T02:51:25.810Z,32.17
2019-05-03T02:53:51.450Z,32.07
2019-05-03T02:56:22.365Z,31.67
2019-05-03T02:58:46.269Z,32.00
2019-05-03T03:01:15.674Z,31.63
2019-05-03T03:03:41.076Z,32.93
2019-05-03T03:06:07.532Z,31.27
2019-05-03T03:08:36.857Z,28.97
2019-05-03T03:11:06.276Z,30.20
2019-05-03T03:13:36.561Z,30.63
2019-05-03T03:16:06.608Z,29.10
2019-05-03T03:18:36.160Z,28.63
2019-05-03T03:21:05.692Z,27.40
2019-05-03T03:23:35.543Z,28.50
2019-05-03T03:26:02.517Z,29.50
2019-05-03T03:28:31.192Z,30.27
2019-05-03T03:30:57.834Z,28.93
2019-05-03T03:33:28.150Z,31.43
2019-05-03T03:35:57.950Z,30.73
2019-05-03T03:38:21.543Z,30.97
2019-05-03T03:40:48.528Z,32.43
2019-05-03T03:43:16.898Z,31.50
2019-05-03T03:45:45.554Z,29.50
2019-05-03T03:48:12.616Z,28.73
2019-05-03T03:50:40.259Z,29.27
2019-05-03T03:53:08.636Z,27.73
2019-05-03T03:55:36.986Z,26.13
2019-05-03T03:58:06.182Z,23.73
2019-05-03T04:00:32.147Z,25.10
2019-05-03T04:02:58.548Z,24.37
2019-05-03T04:05:49.517Z,26.47
2019-05-03T04:08:16.843Z,25.90
2019-05-03T04:10:46.148Z,24.27
2019-05-03T04:13:12.865Z,24.90
2019-05-03T04:15:41.212Z,23.83
2019-05-03T04:18:09.788Z,25.80
2019-05-03T04:20:37.440Z,24.40
2019-05-03T04:23:05.324Z,23.37
2019-05-03T04:25:35.486Z,24.47
2019-05-03T04:28:01.693Z,24.77
2019-05-03T04:30:28.152Z,25.50
2019-05-03T04:32:56.437Z,24.57
2019-05-03T04:35:23.067Z,23.27
2019-05-03T04:37:49.523Z,22.57
2019-05-03T04:40:16.191Z,24.20
2019-05-03T04:42:42.616Z,23.43
2019-05-03T04:45:09.083Z,22.93
2019-05-03T04:47:35.873Z,24.23
2019-05-03T04:50:02.337Z,23.37
2019-05-03T04:52:28.784Z,24.70
2019-05-03T04:54:57.073Z,24.13
2019-05-03T04:57:36.671Z,23.07
2019-05-03T04:59:52.186Z,21.87
2019-05-03T05:02:18.736Z,21.70
2019-05-03T05:04:46.380Z,22.13
2019-05-03T05:07:15.451Z,22.20
2019-05-03T05:09:41.520Z,23.23
2019-05-03T05:12:07.974Z,22.30
2019-05-03T05:14:35.209Z,22.17
2019-05-03T05:17:02.031Z,21.17
2019-05-03T05:19:30.281Z,22.33
2019-05-03T05:21:58.663Z,21.80
2019-05-03T05:24:25.603Z,23.07
2019-05-03T05:26:55.039Z,20.70
2019-05-03T05:29:25.346Z,20.93
2019-05-03T05:31:52.045Z,22.07
2019-05-03T05:34:18.419Z,20.47
2019-05-03T05:36:45.173Z,22.17
2019-05-03T05:39:15.256Z,21.83
2019-05-03T05:41:42.277Z,21.07
2019-05-03T05:44:08.719Z,21.57
2019-05-03T05:46:37.105Z,21.37
2019-05-03T05:49:05.455Z,21.33
2019-05-03T05:51:31.846Z,22.43
2019-05-03T05:53:58.286Z,21.70
2019-05-03T05:56:26.679Z,22.30
2019-05-03T05:58:55.440Z,19.87
2019-05-03T06:01:25.032Z,21.50
2019-05-03T06:03:51.579Z,21.70
2019-05-03T06:06:20.004Z,22.43
2019-05-03T06:08:48.283Z,21.80
2019-05-03T06:11:16.671Z,22.30
2019-05-03T06:13:44.436Z,21.43
2019-05-03T06:16:12.932Z,22.07
2019-05-03T06:18:41.163Z,20.90
2019-05-03T06:21:09.556Z,22.57
2019-05-03T06:23:37.907Z,20.57
2019-05-03T06:26:06.210Z,20.83
2019-05-03T06:28:35.295Z,21.00
2019-05-03T06:31:04.807Z,20.63
2019-05-03T06:33:31.475Z,20.07
2019-05-03T06:35:58.052Z,20.07
2019-05-03T06:38:24.530Z,20.40
2019-05-03T06:40:51.175Z,18.97
2019-05-03T06:43:17.747Z,21.37
2019-05-03T06:45:48.659Z,21.63
2019-05-03T06:48:15.698Z,21.83
2019-05-03T06:50:41.014Z,21.60
2019-05-03T06:53:12.634Z,21.30
2019-05-03T06:55:39.960Z,22.87
2019-05-03T06:58:05.109Z,23.27
2019-05-03T07:00:35.079Z,20.73
2019-05-03T07:03:04.909Z,21.33
2019-05-03T07:05:35.357Z,21.83
2019-05-03T07:08:01.867Z,22.70
2019-05-03T07:10:30.279Z,22.40
2019-05-03T07:12:56.759Z,21.43
2019-05-03T07:15:25.007Z,20.67
2019-05-03T07:17:51.455Z,21.33
2019-05-03T07:20:17.927Z,21.73
2019-05-03T07:22:44.507Z,20.87
2019-05-03T07:25:11.072Z,20.20
2019-05-03T07:27:37.586Z,19.43
2019-05-03T07:30:05.157Z,21.30
2019-05-03T07:32:31.703Z,20.77
2019-05-03T07:34:58.283Z,10.23
2019-05-03T07:37:24.741Z,10.33
2019-05-03T07:39:51.211Z,11.00
2019-05-03T07:42:17.656Z,11.07
2019-05-03T07:44:44.947Z,9.83
2019-05-03T07:47:11.469Z,8.93
2019-05-03T07:49:38.030Z,8.67
2019-05-03T07:52:05.852Z,8.50
2019-05-03T07:54:34.709Z,8.33
2019-05-03T07:57:04.628Z,7.60
2019-05-03T07:59:31.196Z,7.57
2019-05-03T08:01:58.144Z,6.63
2019-05-03T08:04:25.529Z,6.93
2019-05-03T08:06:52.172Z,7.03
2019-05-03T08:09:18.635Z,7.20
2019-05-03T08:11:45.220Z,6.20
2019-05-03T08:14:11.659Z,7.27
2019-05-03T08:16:38.148Z,6.20
2019-05-03T08:19:05.376Z,6.53
2019-05-03T08:21:31.840Z,6.90
2019-05-03T08:23:58.227Z,7.13
2019-05-03T08:26:25.642Z,7.00
2019-05-03T08:28:54.410Z,5.53
2019-05-03T08:31:23.777Z,6.23
2019-05-03T08:33:51.091Z,6.83
2019-05-03T08:36:17.666Z,6.23
2019-05-03T08:38:45.201Z,6.93
2019-05-03T08:41:14.555Z,5.70
2019-05-03T08:43:41.191Z,7.03
2019-05-03T08:46:07.643Z,6.93
2019-05-03T08:48:35.483Z,6.63
2019-05-03T08:51:04.394Z,6.70
2019-05-03T08:53:30.645Z,7.70
2019-05-03T08:55:57.131Z,7.03
2019-05-03T08:58:25.427Z,6.70
2019-05-03T09:00:52.043Z,6.57
2019-05-03T09:03:18.395Z,6.87
2019-05-03T09:05:46.145Z,6.85
2019-05-03T09:08:12.920Z,7.35
2019-05-03T09:10:41.308Z,6.50
2019-05-03T09:13:09.667Z,6.47
2019-05-03T09:15:37.437Z,6.55
2019-05-03T09:18:04.852Z,6.47
2019-05-03T09:20:32.517Z,6.53
2019-05-03T09:22:59.125Z,5.97
2019-05-03T09:25:25.631Z,5.90
2019-05-03T09:27:52.241Z,5.80
2019-05-03T09:30:18.688Z,5.15
2019-05-03T09:32:45.175Z,4.78
2019-05-03T09:35:12.231Z,4.20
2019-05-03T09:37:38.848Z,3.77
2019-05-03T09:40:05.238Z,3.50
2019-05-03T09:42:32.259Z,4.42
2019-05-03T09:44:58.714Z,3.27
2019-05-03T09:47:25.364Z,3.00
2019-05-03T09:49:52.031Z,3.10
2019-05-03T09:52:18.501Z,2.83
2019-05-03T09:54:46.958Z,2.60
2019-05-03T09:57:15.183Z,2.77
2019-05-03T09:59:54.277Z,2.43
2019-05-03T10:02:10.047Z,2.40
2019-05-03T10:04:36.877Z,2.20
2019-05-03T10:07:03.764Z,2.00
2019-05-03T10:09:30.326Z,2.00
2019-05-03T10:11:57.099Z,1.60
2019-05-03T10:14:23.486Z,2.20
2019-05-03T10:16:51.844Z,1.53
2019-05-03T10:19:18.408Z,1.45
2019-05-03T10:21:46.564Z,1.40
2019-05-03T10:24:14.854Z,1.35
2019-05-03T10:26:41.564Z,1.17
2019-05-03T10:29:08.099Z,1.37
2019-05-03T10:31:36.460Z,1.27
2019-05-03T10:34:05.586Z,1.40
2019-05-03T10:36:31.603Z,1.22
2019-05-03T10:38:58.072Z,1.40
2019-05-03T10:41:25.116Z,1.20
2019-05-03T10:43:51.712Z,1.22
2019-05-03T10:46:18.163Z,1.52
2019-05-03T10:48:45.248Z,1.30
2019-05-03T10:51:11.871Z,1.40
2019-05-03T10:53:40.256Z,1.43
2019-05-03T10:56:08.599Z,1.17
2019-05-03T10:58:35.677Z,1.47
2019-05-03T11:01:02.319Z,1.30
2019-05-03T11:03:28.686Z,1.73
2019-05-03T11:05:55.130Z,1.50
2019-05-03T11:08:21.530Z,1.47
2019-05-03T11:10:47.979Z,1.80
2019-05-03T11:13:15.458Z,1.50
2019-05-03T11:15:42.103Z,1.60
2019-05-03T11:18:08.679Z,1.40
2019-05-03T11:20:35.332Z,1.47
2019-05-03T11:23:02.830Z,1.52
2019-05-03T11:25:29.209Z,1.50
2019-05-03T11:27:56.283Z,1.82
2019-05-03T11:30:24.595Z,1.80
2019-05-03T11:32:52.944Z,1.52
2019-05-03T11:35:21.311Z,1.60
2019-05-03T11:37:49.663Z,2.02
2019-05-03T11:40:16.436Z,1.80
2019-05-03T11:42:44.716Z,1.72
2019-05-03T11:45:11.460Z,1.87
2019-05-03T11:47:37.916Z,1.72
2019-05-03T11:50:04.986Z,1.72
2019-05-03T11:52:31.427Z,1.80
2019-05-03T11:54:58.005Z,1.92
2019-05-03T11:57:26.602Z,1.67
2019-05-03T11:59:55.690Z,1.75
2019-05-03T12:02:24.788Z,1.77
2019-05-03T12:04:51.328Z,2.00
2019-05-03T12:07:19.683Z,1.70
2019-05-03T12:09:46.161Z,1.72
2019-05-03T12:12:15.193Z,2.02
2019-05-03T12:14:41.587Z,2.20
2019-05-03T12:17:18.830Z,2.00
2019-05-03T12:19:40.011Z,1.95
2019-05-03T12:22:07.897Z,2.20
2019-05-03T12:24:36.404Z,1.87
2019-05-03T12:27:04.746Z,2.00
2019-05-03T12:29:31.199Z,1.85
2019-05-03T12:31:57.676Z,1.85
2019-05-03T12:34:25.631Z,2.05
2019-05-03T12:36:52.214Z,2.50
2019-05-03T12:39:26.349Z,2.30
2019-05-03T12:41:48.174Z,2.80
2019-05-03T12:44:15.268Z,2.50
2019-05-03T12:46:41.828Z,3.02
2019-05-03T12:49:08.296Z,3.27
2019-05-03T12:51:34.768Z,2.65
2019-05-03T12:54:01.224Z,2.98
2019-05-03T12:56:32.806Z,3.10
2019-05-03T12:58:57.904Z,3.20
2019-05-03T13:01:33.991Z,3.42
2019-05-03T13:03:56.451Z,3.45
2019-05-03T13:06:22.899Z,2.80
2019-05-03T13:08:49.393Z,3.22
2019-05-03T13:11:15.739Z,3.40
2019-05-03T13:13:42.210Z,3.33
2019-05-03T13:16:12.388Z,3.27
2019-05-03T13:18:38.956Z,3.35
2019-05-03T13:21:06.134Z,3.77
2019-05-03T13:23:35.402Z,3.08
2019-05-03T13:26:01.234Z,3.47
2019-05-03T13:28:27.711Z,3.00
2019-05-03T13:30:54.581Z,3.02
2019-05-03T13:33:21.120Z,2.87
2019-05-03T13:35:47.571Z,2.83
2019-05-03T13:38:14.051Z,3.22
2019-05-03T13:40:40.427Z,4.05
2019-05-03T13:43:06.910Z,3.25
2019-05-03T13:45:35.384Z,3.30
2019-05-03T13:48:01.906Z,3.27
2019-05-03T13:50:28.403Z,3.87
2019-05-03T13:52:55.901Z,3.98
2019-05-03T13:55:24.531Z,4.17
2019-05-03T13:57:50.975Z,3.92
2019-05-03T14:00:17.740Z,4.25
2019-05-03T14:02:44.960Z,3.90
2019-05-03T14:05:11.663Z,3.85
2019-05-03T14:07:38.127Z,4.37
2019-05-03T14:10:06.394Z,4.20
2019-05-03T14:12:34.981Z,4.45
2019-05-03T14:15:01.322Z,4.03
2019-05-03T14:17:28.565Z,4.40
2019-05-03T14:19:56.867Z,4.55
2019-05-03T14:22:25.522Z,4.25
2019-05-03T14:24:51.979Z,4.55
2019-05-03T14:27:18.371Z,4.17
2019-05-03T14:29:45.449Z,4.05
2019-05-03T14:32:25.159Z,3.77
2019-05-03T14:34:40.476Z,4.30
2019-05-03T14:37:06.827Z,4.40
2019-05-03T14:39:33.224Z,4.10
2019-05-03T14:41:59.906Z,3.70
2019-05-03T14:44:26.388Z,4.10
2019-05-03T14:46:58.786Z,3.70
2019-05-03T14:49:21.225Z,4.03
2019-05-03T14:51:48.664Z,3.98
2019-05-03T14:54:15.215Z,3.83
2019-05-03T14:56:45.579Z,3.77
2019-05-03T14:59:14.862Z,3.85
2019-05-03T15:01:43.351Z,4.03
2019-05-03T15:04:09.700Z,3.85
2019-05-03T15:06:36.178Z,3.72
2019-05-03T15:09:05.421Z,3.75
2019-05-03T15:11:32.029Z,4.10
2019-05-03T15:13:58.548Z,4.05
2019-05-03T15:16:26.011Z,4.00
2019-05-03T15:18:52.393Z,4.05
2019-05-03T15:21:18.752Z,3.72
2019-05-03T15:23:45.410Z,4.42
2019-05-03T15:26:11.985Z,3.72
2019-05-03T15:28:38.380Z,3.55
2019-05-03T15:31:05.088Z,3.80
2019-05-03T15:33:31.642Z,3.60
2019-05-03T15:35:58.008Z,3.50
2019-05-03T15:38:24.468Z,3.35
2019-05-03T15:40:51.077Z,3.80
2019-05-03T15:43:19.419Z,3.92
2019-05-03T15:45:47.858Z,3.35
2019-05-03T15:48:16.135Z,3.37
2019-05-03T15:50:44.521Z,4.20
2019-05-03T15:53:11.498Z,4.40
2019-05-03T15:55:37.956Z,3.50
2019-05-03T15:58:04.818Z,3.90
2019-05-03T16:00:31.275Z,3.30
2019-05-03T16:03:07.809Z,4.00
2019-05-03T16:05:26.004Z,3.80
2019-05-03T16:07:52.580Z,3.87
2019-05-03T16:10:18.963Z,3.52
2019-05-03T16:12:46.012Z,4.33
2019-05-03T16:15:12.770Z,4.30
2019-05-03T16:17:39.241Z,4.05
2019-05-03T16:20:05.991Z,4.47
2019-05-03T16:22:32.460Z,3.98
2019-05-03T16:24:58.910Z,4.22
2019-05-03T16:27:25.428Z,4.37
2019-05-03T16:29:51.877Z,4.20
2019-05-03T16:32:18.448Z,4.10
2019-05-03T16:34:44.899Z,3.83
2019-05-03T16:37:11.471Z,4.50
2019-05-03T16:39:37.829Z,3.67
2019-05-03T16:42:06.804Z,4.17
2019-05-03T16:44:32.761Z,4.22
2019-05-03T16:46:59.139Z,4.00
2019-05-03T16:49:25.607Z,3.93
2019-05-03T16:51:52.057Z,4.00
2019-05-03T16:54:18.520Z,4.83
2019-05-03T16:56:44.977Z,3.83
2019-05-03T16:59:11.572Z,3.47
2019-05-03T17:01:38.117Z,4.50
2019-05-03T17:04:09.278Z,4.57
2019-05-03T17:06:39.313Z,4.40
2019-05-03T17:09:07.822Z,4.23
2019-05-03T17:11:34.670Z,4.50
2019-05-03T17:14:01.440Z,4.53
2019-05-03T17:16:27.886Z,4.33
2019-05-03T17:18:55.159Z,4.00
2019-05-03T17:21:21.638Z,4.67
2019-05-03T17:23:48.207Z,4.10
2019-05-03T17:26:15.314Z,3.80
2019-05-03T17:28:44.783Z,3.90
2019-05-03T17:31:11.263Z,3.53
2019-05-03T17:33:37.639Z,3.47
2019-05-03T17:36:05.117Z,4.43
2019-05-03T17:38:31.680Z,3.63
2019-05-03T17:41:00.028Z,3.30
2019-05-03T17:43:28.416Z,3.40
2019-05-03T17:45:56.666Z,3.20
2019-05-03T17:48:23.017Z,3.20
2019-05-03T17:50:49.487Z,2.83
2019-05-03T17:53:17.839Z,3.20
2019-05-03T17:55:46.227Z,3.43
2019-05-03T17:58:15.094Z,3.03
2019-05-03T18:00:44.349Z,3.30
2019-05-03T18:03:11.244Z,3.00
2019-05-03T18:05:39.534Z,3.63
2019-05-03T18:08:07.895Z,3.40
2019-05-03T18:10:36.274Z,3.60
2019-05-03T18:13:02.719Z,3.60
2019-05-03T18:15:29.192Z,3.50
2019-05-03T18:17:55.749Z,3.37
2019-05-03T18:20:22.390Z,3.10
2019-05-03T18:22:48.964Z,3.73
2019-05-03T18:25:15.615Z,3.23
2019-05-03T18:27:42.177Z,3.43
2019-05-03T18:30:08.943Z,3.30
2019-05-03T18:32:35.431Z,3.03
2019-05-03T18:35:02.628Z,3.20
2019-05-03T18:37:29.183Z,3.60
2019-05-03T18:39:55.703Z,3.60
2019-05-03T18:42:24.582Z,3.63
2019-05-03T18:44:52.980Z,3.87
2019-05-03T18:47:21.274Z,5.77
2019-05-03T18:49:47.712Z,5.33
2019-05-03T18:52:14.907Z,5.33
2019-05-03T18:54:41.535Z,6.00
2019-05-03T18:57:08.004Z,7.10
2019-05-03T18:59:34.451Z,7.80
2019-05-03T19:02:01.027Z,4.57
2019-05-03T19:04:34.659Z,4.13
2019-05-03T19:07:04.362Z,4.63
2019-05-03T19:09:28.203Z,4.97
2019-05-03T19:11:56.624Z,4.33
2019-05-03T19:14:25.455Z,5.97
2019-05-03T19:16:54.540Z,5.50
2019-05-03T19:19:24.657Z,5.73
2019-05-03T19:21:51.327Z,4.90
2019-05-03T19:24:17.875Z,5.10
2019-05-03T19:26:45.052Z,4.07
2019-05-03T19:29:11.615Z,3.70
2019-05-03T19:31:38.183Z,4.20
2019-05-03T19:34:06.069Z,4.90
2019-05-03T19:36:34.818Z,4.67
2019-05-03T19:39:01.175Z,4.07
2019-05-03T19:41:27.576Z,4.40
2019-05-03T19:43:55.026Z,6.03
2019-05-03T19:46:21.792Z,8.93
2019-05-03T19:48:48.243Z,6.80
2019-05-03T19:51:14.592Z,8.70
2019-05-03T19:53:44.258Z,5.90
2019-05-03T19:56:10.936Z,6.47
2019-05-03T19:58:37.300Z,5.13
2019-05-03T20:01:05.778Z,5.90
2019-05-03T20:03:35.267Z,5.90
2019-05-03T20:06:04.940Z,7.67
2019-05-03T20:08:35.037Z,7.70
2019-05-03T20:11:05.015Z,12.97
2019-05-03T20:13:34.767Z,15.77
2019-05-03T20:15:59.799Z,14.93
2019-05-03T20:18:26.167Z,9.83
2019-05-03T20:20:52.627Z,8.90
2019-05-03T20:23:18.996Z,8.27
2019-05-03T20:25:45.489Z,8.00
2019-05-03T20:28:12.050Z,8.10
2019-05-03T20:30:38.403Z,7.10
2019-05-03T20:33:04.874Z,7.03
2019-05-03T20:35:31.421Z,6.50
2019-05-03T20:37:58.050Z,6.97
2019-05-03T20:40:25.553Z,6.53
2019-05-03T20:42:54.437Z,6.53
2019-05-03T20:45:24.823Z,6.30
2019-05-03T20:47:54.749Z,7.77
2019-05-03T20:50:21.327Z,6.77
2019-05-03T20:52:47.871Z,7.23
2019-05-03T20:55:15.528Z,6.97
2019-05-03T20:57:44.268Z,7.33
2019-05-03T21:00:11.203Z,7.97
2019-05-03T21:02:37.549Z,8.53
2019-05-03T21:05:05.015Z,9.83
2019-05-03T21:07:31.413Z,10.63
2019-05-03T21:09:57.943Z,12.43
2019-05-03T21:12:25.251Z,10.23
2019-05-03T21:14:51.775Z,7.80
2019-05-03T21:17:20.028Z,7.40
2019-05-03T21:19:48.315Z,6.97
2019-05-03T21:22:16.554Z,7.67
2019-05-03T21:24:45.464Z,7.70
2019-05-03T21:27:11.922Z,8.47
2019-05-03T21:29:40.291Z,9.00
2019-05-03T21:32:06.736Z,9.73
2019-05-03T21:34:34.613Z,9.70
2019-05-03T21:37:01.281Z,10.47
2019-05-03T21:39:27.847Z,9.63
2019-05-03T21:41:55.584Z,8.93
2019-05-03T21:44:23.991Z,8.47
2019-05-03T21:46:50.459Z,8.43
2019-05-03T21:49:18.706Z,8.07
2019-05-03T21:51:45.171Z,8.57
2019-05-03T21:54:11.631Z,9.30
2019-05-03T21:56:38.195Z,8.47
2019-05-03T21:59:05.543Z,7.93
2019-05-03T22:01:34.554Z,8.67
2019-05-03T22:04:00.782Z,8.30
2019-05-03T22:06:27.163Z,7.43
2019-05-03T22:08:55.404Z,7.27
2019-05-03T22:11:22.177Z,8.67
2019-05-03T22:13:50.527Z,9.10
2019-05-03T22:16:18.914Z,8.67
2019-05-03T22:18:45.573Z,8.97
2019-05-03T22:21:14.060Z,9.37
2019-05-03T22:23:42.416Z,9.67
2019-05-03T22:26:08.884Z,7.93
2019-05-03T22:28:35.304Z,7.20
2019-05-03T22:31:04.898Z,8.60
2019-05-03T22:33:30.675Z,7.73
2019-05-03T22:36:08.255Z,7.77
2019-05-03T22:38:25.627Z,7.43
2019-05-03T22:40:52.179Z,7.33
2019-05-03T22:43:18.647Z,6.90
2019-05-03T22:45:45.661Z,7.93
2019-05-03T22:48:12.171Z,8.37
2019-05-03T22:50:38.519Z,7.27
2019-05-03T22:53:05.536Z,8.53
2019-05-03T22:55:32.639Z,9.47
2019-05-03T22:57:59.107Z,9.73
2019-05-03T23:00:25.664Z,9.10
2019-05-03T23:02:52.282Z,10.30
2019-05-03T23:05:18.728Z,9.17
2019-05-03T23:07:46.950Z,8.47
2019-05-03T23:10:14.769Z,9.13
2019-05-03T23:12:41.903Z,9.57
2019-05-03T23:15:08.963Z,9.10
2019-05-03T23:17:35.347Z,8.70
2019-05-03T23:20:05.203Z,7.83
2019-05-03T23:22:32.180Z,8.17
2019-05-03T23:24:58.533Z,9.00
2019-05-03T23:27:25.387Z,8.87
2019-05-03T23:29:51.927Z,7.97
2019-05-03T23:32:18.379Z,8.73
2019-05-03T23:34:46.444Z,7.60
2019-05-03T23:37:14.767Z,8.07
2019-05-03T23:39:41.390Z,7.33
2019-05-03T23:42:07.732Z,7.87
2019-05-03T23:44:35.068Z,7.77
2019-05-03T23:47:05.190Z,8.07
2019-05-03T23:49:31.947Z,8.93
2019-05-03T23:52:00.299Z,9.03
2019-05-03T23:54:26.759Z,8.17
2019-05-03T23:56:54.799Z,8.87
2019-05-03T23:59:21.373Z,8.90
